sensor_id;sensor_type;location;lat;lon;timestamp;temperature;humidity
45715;DHT22;31430;61.646;24.704;2022-11-04T00:00:14;4.90;99.90
45715;DHT22;31430;61.646;24.704;2022-11-04T00:02:40;4.90;99.90
45715;DHT22;31430;61.646;24.704;2022-11-04T00:05:05;4.90;99.90
45715;DHT22;31430;61.646;24.704;2022-11-04T00:07:31;4.90;99.90
45715;DHT22;31430;61.646;24.704;2022-11-04T00:10:16;4.90;99.90
45715;DHT22;31430;61.646;24.704;2022-11-04T00:12:41;4.90;99.90
45715;DHT22;31430;61.646;24.704;2022-11-04T00:15:07;4.90;99.90
45715;DHT22;31430;61.646;24.704;2022-11-04T00:18:08;4.90;99.90
45715;DHT22;31430;61.646;24.704;2022-11-04T00:20:34;4.90;99.90
45715;DHT22;31430;61.646;24.704;2022-11-04T00:23:18;4.90;99.90
45715;DHT22;31430;61.646;24.704;2022-11-04T00:26:02;4.90;99.90
45715;DHT22;31430;61.646;24.704;2022-11-04T00:28:46;4.90;99.90
45715;DHT22;31430;61.646;24.704;2022-11-04T00:31:12;4.90;99.90
45715;DHT22;31430;61.646;24.704;2022-11-04T00:33:57;4.90;99.90
45715;DHT22;31430;61.646;24.704;2022-11-04T00:36:24;4.90;99.90
45715;DHT22;31430;61.646;24.704;2022-11-04T00:38:50;4.90;99.90
45715;DHT22;31430;61.646;24.704;2022-11-04T00:41:15;5.00;99.90
45715;DHT22;31430;61.646;24.704;2022-11-04T00:44:01;5.00;99.90
45715;DHT22;31430;61.646;24.704;2022-11-04T00:46:30;5.00;99.90
45715;DHT22;31430;61.646;24.704;2022-11-04T00:48:55;5.00;99.90
45715;DHT22;31430;61.646;24.704;2022-11-04T00:51:21;5.00;99.90
45715;DHT22;31430;61.646;24.704;2022-11-04T00:53:47;5.00;99.90
45715;DHT22;31430;61.646;24.704;2022-11-04T00:56:13;5.00;99.90
45715;DHT22;31430;61.646;24.704;2022-11-04T00:58:39;5.00;99.90
45715;DHT22;31430;61.646;24.704;2022-11-04T01:01:12;5.00;99.90
45715;DHT22;31430;61.646;24.704;2022-11-04T01:03:38;5.00;99.90
45715;DHT22;31430;61.646;24.704;2022-11-04T01:06:04;5.10;99.90
45715;DHT22;31430;61.646;24.704;2022-11-04T01:08:30;5.00;99.90
45715;DHT22;31430;61.646;24.704;2022-11-04T01:11:01;5.10;99.90
45715;DHT22;31430;61.646;24.704;2022-11-04T01:13:26;5.00;99.90
45715;DHT22;31430;61.646;24.704;2022-11-04T01:15:52;5.00;99.90
45715;DHT22;31430;61.646;24.704;2022-11-04T01:18:17;5.10;99.90
45715;DHT22;31430;61.646;24.704;2022-11-04T01:20:43;5.10;99.90
45715;DHT22;31430;61.646;24.704;2022-11-04T01:23:09;5.10;99.90
45715;DHT22;31430;61.646;24.704;2022-11-04T01:25:39;5.10;99.90
45715;DHT22;31430;61.646;24.704;2022-11-04T01:28:06;5.10;99.90
45715;DHT22;31430;61.646;24.704;2022-11-04T01:30:32;5.00;99.90
45715;DHT22;31430;61.646;24.704;2022-11-04T01:32:57;5.00;99.90
45715;DHT22;31430;61.646;24.704;2022-11-04T01:35:23;5.00;99.90
45715;DHT22;31430;61.646;24.704;2022-11-04T01:37:49;5.00;99.90
45715;DHT22;31430;61.646;24.704;2022-11-04T01:40:14;5.10;99.90
45715;DHT22;31430;61.646;24.704;2022-11-04T01:42:40;5.10;99.90
45715;DHT22;31430;61.646;24.704;2022-11-04T01:45:12;5.00;99.90
45715;DHT22;31430;61.646;24.704;2022-11-04T01:48:00;5.00;99.90
45715;DHT22;31430;61.646;24.704;2022-11-04T01:50:31;5.00;99.90
45715;DHT22;31430;61.646;24.704;2022-11-04T01:53:14;5.00;99.90
45715;DHT22;31430;61.646;24.704;2022-11-04T01:55:46;5.00;99.90
45715;DHT22;31430;61.646;24.704;2022-11-04T01:58:17;5.00;99.90
45715;DHT22;31430;61.646;24.704;2022-11-04T02:00:45;5.00;99.90
45715;DHT22;31430;61.646;24.704;2022-11-04T02:03:24;5.00;99.90
45715;DHT22;31430;61.646;24.704;2022-11-04T02:05:51;5.00;99.90
45715;DHT22;31430;61.646;24.704;2022-11-04T02:08:18;5.00;99.90
45715;DHT22;31430;61.646;24.704;2022-11-04T02:10:51;5.10;99.90
45715;DHT22;31430;61.646;24.704;2022-11-04T02:13:19;5.10;99.90
45715;DHT22;31430;61.646;24.704;2022-11-04T02:16:07;5.10;99.90
45715;DHT22;31430;61.646;24.704;2022-11-04T02:38:14;5.20;99.90
45715;DHT22;31430;61.646;24.704;2022-11-04T02:43:39;5.10;99.90
45715;DHT22;31430;61.646;24.704;2022-11-04T02:46:22;5.10;99.90
45715;DHT22;31430;61.646;24.704;2022-11-04T02:49:12;5.10;99.90
45715;DHT22;31430;61.646;24.704;2022-11-04T02:51:57;5.10;99.90
45715;DHT22;31430;61.646;24.704;2022-11-04T02:54:50;5.10;99.90
45715;DHT22;31430;61.646;24.704;2022-11-04T02:57:25;5.10;99.90
45715;DHT22;31430;61.646;24.704;2022-11-04T02:59:57;5.00;99.90
45715;DHT22;31430;61.646;24.704;2022-11-04T03:02:50;5.10;99.90
45715;DHT22;31430;61.646;24.704;2022-11-04T03:05:16;5.10;99.90
45715;DHT22;31430;61.646;24.704;2022-11-04T03:07:45;5.10;99.90
45715;DHT22;31430;61.646;24.704;2022-11-04T03:10:15;5.10;99.90
45715;DHT22;31430;61.646;24.704;2022-11-04T03:12:49;5.10;99.90
45715;DHT22;31430;61.646;24.704;2022-11-04T03:15:27;5.10;99.90
45715;DHT22;31430;61.646;24.704;2022-11-04T03:18:22;5.20;99.90
45715;DHT22;31430;61.646;24.704;2022-11-04T03:20:50;5.20;99.90
45715;DHT22;31430;61.646;24.704;2022-11-04T03:23:17;5.10;99.90
45715;DHT22;31430;61.646;24.704;2022-11-04T03:25:45;5.10;99.90
45715;DHT22;31430;61.646;24.704;2022-11-04T03:30:55;5.10;99.90
45715;DHT22;31430;61.646;24.704;2022-11-04T03:33:37;5.00;99.90
45715;DHT22;31430;61.646;24.704;2022-11-04T03:36:05;5.00;99.90
45715;DHT22;31430;61.646;24.704;2022-11-04T03:38:33;5.00;99.90
45715;DHT22;31430;61.646;24.704;2022-11-04T03:41:00;5.10;99.90
45715;DHT22;31430;61.646;24.704;2022-11-04T03:43:27;5.10;99.90
45715;DHT22;31430;61.646;24.704;2022-11-04T03:45:53;5.10;99.90
45715;DHT22;31430;61.646;24.704;2022-11-04T03:48:21;5.10;99.90
45715;DHT22;31430;61.646;24.704;2022-11-04T03:50:48;5.10;99.90
45715;DHT22;31430;61.646;24.704;2022-11-04T03:53:19;5.10;99.90
45715;DHT22;31430;61.646;24.704;2022-11-04T03:58:31;5.20;99.90
45715;DHT22;31430;61.646;24.704;2022-11-04T04:03:50;5.20;99.90
45715;DHT22;31430;61.646;24.704;2022-11-04T04:06:25;5.10;99.90
45715;DHT22;31430;61.646;24.704;2022-11-04T04:09:08;5.10;99.90
45715;DHT22;31430;61.646;24.704;2022-11-04T04:11:57;5.10;99.90
45715;DHT22;31430;61.646;24.704;2022-11-04T04:14:37;5.10;99.90
45715;DHT22;31430;61.646;24.704;2022-11-04T04:19:53;5.20;99.90
45715;DHT22;31430;61.646;24.704;2022-11-04T04:23:10;5.20;99.90
45715;DHT22;31430;61.646;24.704;2022-11-04T04:25:16;5.20;99.90
45715;DHT22;31430;61.646;24.704;2022-11-04T04:28:03;5.20;99.90
45715;DHT22;31430;61.646;24.704;2022-11-04T04:30:29;5.20;99.90
45715;DHT22;31430;61.646;24.704;2022-11-04T04:33:06;5.20;99.90
45715;DHT22;31430;61.646;24.704;2022-11-04T04:35:39;5.20;99.90
45715;DHT22;31430;61.646;24.704;2022-11-04T04:38:29;5.20;99.90
45715;DHT22;31430;61.646;24.704;2022-11-04T04:41:22;5.20;99.90
45715;DHT22;31430;61.646;24.704;2022-11-04T04:44:25;5.20;99.90
45715;DHT22;31430;61.646;24.704;2022-11-04T04:47:13;5.10;99.90
45715;DHT22;31430;61.646;24.704;2022-11-04T04:49:51;5.10;99.90
45715;DHT22;31430;61.646;24.704;2022-11-04T04:52:17;5.10;99.90
45715;DHT22;31430;61.646;24.704;2022-11-04T04:54:44;5.10;99.90
45715;DHT22;31430;61.646;24.704;2022-11-04T04:57:10;5.10;99.90
45715;DHT22;31430;61.646;24.704;2022-11-04T04:59:36;5.00;99.90
45715;DHT22;31430;61.646;24.704;2022-11-04T05:02:01;5.10;99.90
45715;DHT22;31430;61.646;24.704;2022-11-04T05:04:29;5.10;99.90
45715;DHT22;31430;61.646;24.704;2022-11-04T05:06:54;5.00;99.90
45715;DHT22;31430;61.646;24.704;2022-11-04T05:09:20;5.00;99.90
45715;DHT22;31430;61.646;24.704;2022-11-04T05:11:46;5.00;99.90
45715;DHT22;31430;61.646;24.704;2022-11-04T05:14:12;5.10;99.90
45715;DHT22;31430;61.646;24.704;2022-11-04T05:16:37;5.00;99.90
45715;DHT22;31430;61.646;24.704;2022-11-04T05:19:03;5.00;99.90
45715;DHT22;31430;61.646;24.704;2022-11-04T05:21:29;5.00;99.90
45715;DHT22;31430;61.646;24.704;2022-11-04T05:23:54;5.10;99.90
45715;DHT22;31430;61.646;24.704;2022-11-04T05:26:20;5.10;99.90
45715;DHT22;31430;61.646;24.704;2022-11-04T05:28:46;5.10;99.90
45715;DHT22;31430;61.646;24.704;2022-11-04T05:31:11;5.10;99.90
45715;DHT22;31430;61.646;24.704;2022-11-04T05:33:37;5.10;99.90
45715;DHT22;31430;61.646;24.704;2022-11-04T05:36:11;5.10;99.90
45715;DHT22;31430;61.646;24.704;2022-11-04T05:38:38;5.20;99.90
45715;DHT22;31430;61.646;24.704;2022-11-04T05:41:04;5.10;99.90
45715;DHT22;31430;61.646;24.704;2022-11-04T05:43:30;5.10;99.90
45715;DHT22;31430;61.646;24.704;2022-11-04T05:45:58;5.10;99.90
45715;DHT22;31430;61.646;24.704;2022-11-04T05:48:24;5.10;99.90
45715;DHT22;31430;61.646;24.704;2022-11-04T05:50:50;5.10;99.90
45715;DHT22;31430;61.646;24.704;2022-11-04T05:53:15;5.10;99.90
45715;DHT22;31430;61.646;24.704;2022-11-04T05:55:42;5.20;99.90
45715;DHT22;31430;61.646;24.704;2022-11-04T05:58:08;5.20;99.90
45715;DHT22;31430;61.646;24.704;2022-11-04T06:00:34;5.20;99.90
45715;DHT22;31430;61.646;24.704;2022-11-04T06:02:59;5.10;99.90
45715;DHT22;31430;61.646;24.704;2022-11-04T06:05:26;5.20;99.90
45715;DHT22;31430;61.646;24.704;2022-11-04T06:07:53;5.20;99.90
45715;DHT22;31430;61.646;24.704;2022-11-04T06:10:18;5.20;99.90
45715;DHT22;31430;61.646;24.704;2022-11-04T06:12:44;5.20;99.90
45715;DHT22;31430;61.646;24.704;2022-11-04T06:15:10;5.20;99.90
45715;DHT22;31430;61.646;24.704;2022-11-04T06:17:36;5.10;99.90
45715;DHT22;31430;61.646;24.704;2022-11-04T06:20:02;5.20;99.90
45715;DHT22;31430;61.646;24.704;2022-11-04T06:22:28;5.30;99.90
45715;DHT22;31430;61.646;24.704;2022-11-04T06:24:54;5.20;99.90
45715;DHT22;31430;61.646;24.704;2022-11-04T06:27:19;5.20;99.90
45715;DHT22;31430;61.646;24.704;2022-11-04T06:29:45;5.20;99.90
45715;DHT22;31430;61.646;24.704;2022-11-04T06:32:14;5.20;99.90
45715;DHT22;31430;61.646;24.704;2022-11-04T06:34:40;5.20;99.90
45715;DHT22;31430;61.646;24.704;2022-11-04T06:37:06;5.20;99.90
45715;DHT22;31430;61.646;24.704;2022-11-04T06:39:32;5.20;99.90
45715;DHT22;31430;61.646;24.704;2022-11-04T06:41:58;5.30;99.90
45715;DHT22;31430;61.646;24.704;2022-11-04T06:44:24;5.20;99.90
45715;DHT22;31430;61.646;24.704;2022-11-04T06:46:49;5.30;99.90
45715;DHT22;31430;61.646;24.704;2022-11-04T06:49:17;5.30;99.90
45715;DHT22;31430;61.646;24.704;2022-11-04T06:51:44;5.30;99.90
45715;DHT22;31430;61.646;24.704;2022-11-04T06:54:10;5.40;99.90
45715;DHT22;31430;61.646;24.704;2022-11-04T06:56:36;5.40;99.90
45715;DHT22;31430;61.646;24.704;2022-11-04T06:59:02;5.30;99.90
45715;DHT22;31430;61.646;24.704;2022-11-04T07:01:30;5.30;99.90
45715;DHT22;31430;61.646;24.704;2022-11-04T07:03:58;5.30;99.90
45715;DHT22;31430;61.646;24.704;2022-11-04T07:06:25;5.40;99.90
45715;DHT22;31430;61.646;24.704;2022-11-04T07:08:51;5.40;99.90
45715;DHT22;31430;61.646;24.704;2022-11-04T07:11:19;5.40;99.90
45715;DHT22;31430;61.646;24.704;2022-11-04T07:13:46;5.40;99.90
45715;DHT22;31430;61.646;24.704;2022-11-04T07:16:12;5.40;99.90
45715;DHT22;31430;61.646;24.704;2022-11-04T07:18:37;5.40;99.90
45715;DHT22;31430;61.646;24.704;2022-11-04T07:21:04;5.50;99.90
45715;DHT22;31430;61.646;24.704;2022-11-04T07:23:30;5.50;99.90
45715;DHT22;31430;61.646;24.704;2022-11-04T07:26:00;5.40;99.90
45715;DHT22;31430;61.646;24.704;2022-11-04T07:28:26;5.40;99.90
45715;DHT22;31430;61.646;24.704;2022-11-04T07:30:54;5.40;99.90
45715;DHT22;31430;61.646;24.704;2022-11-04T07:33:20;5.30;99.90
45715;DHT22;31430;61.646;24.704;2022-11-04T07:35:46;5.30;99.90
45715;DHT22;31430;61.646;24.704;2022-11-04T07:38:12;5.30;99.90
45715;DHT22;31430;61.646;24.704;2022-11-04T07:40:37;5.40;99.90
45715;DHT22;31430;61.646;24.704;2022-11-04T07:43:03;5.50;99.90
45715;DHT22;31430;61.646;24.704;2022-11-04T07:45:29;5.40;99.90
45715;DHT22;31430;61.646;24.704;2022-11-04T07:47:54;5.50;99.90
45715;DHT22;31430;61.646;24.704;2022-11-04T07:50:20;5.40;99.90
45715;DHT22;31430;61.646;24.704;2022-11-04T07:52:46;5.40;99.90
45715;DHT22;31430;61.646;24.704;2022-11-04T07:55:11;5.30;99.90
45715;DHT22;31430;61.646;24.704;2022-11-04T07:57:43;5.50;99.90
45715;DHT22;31430;61.646;24.704;2022-11-04T08:00:09;5.60;99.90
45715;DHT22;31430;61.646;24.704;2022-11-04T08:02:36;5.60;99.90
45715;DHT22;31430;61.646;24.704;2022-11-04T08:05:02;5.60;99.90
45715;DHT22;31430;61.646;24.704;2022-11-04T08:07:27;5.60;99.90
45715;DHT22;31430;61.646;24.704;2022-11-04T08:09:53;5.50;99.90
45715;DHT22;31430;61.646;24.704;2022-11-04T08:12:19;5.60;99.90
45715;DHT22;31430;61.646;24.704;2022-11-04T08:14:46;5.60;99.90
45715;DHT22;31430;61.646;24.704;2022-11-04T08:17:12;5.60;99.90
45715;DHT22;31430;61.646;24.704;2022-11-04T08:19:37;5.70;99.90
45715;DHT22;31430;61.646;24.704;2022-11-04T08:22:03;5.70;99.90
45715;DHT22;31430;61.646;24.704;2022-11-04T08:24:29;5.70;99.90
45715;DHT22;31430;61.646;24.704;2022-11-04T08:26:54;5.70;99.90
45715;DHT22;31430;61.646;24.704;2022-11-04T08:29:20;5.70;99.90
45715;DHT22;31430;61.646;24.704;2022-11-04T08:31:45;5.70;99.90
45715;DHT22;31430;61.646;24.704;2022-11-04T08:34:11;5.70;99.90
45715;DHT22;31430;61.646;24.704;2022-11-04T08:36:39;5.80;99.90
45715;DHT22;31430;61.646;24.704;2022-11-04T08:39:08;5.80;99.90
45715;DHT22;31430;61.646;24.704;2022-11-04T08:41:34;5.90;99.90
45715;DHT22;31430;61.646;24.704;2022-11-04T08:44:02;5.90;99.90
45715;DHT22;31430;61.646;24.704;2022-11-04T08:46:32;6.00;99.90
45715;DHT22;31430;61.646;24.704;2022-11-04T08:48:58;6.10;99.90
45715;DHT22;31430;61.646;24.704;2022-11-04T08:51:25;6.00;99.90
45715;DHT22;31430;61.646;24.704;2022-11-04T08:53:51;6.00;99.90
45715;DHT22;31430;61.646;24.704;2022-11-04T08:56:26;6.10;99.90
45715;DHT22;31430;61.646;24.704;2022-11-04T08:58:54;6.10;99.90
45715;DHT22;31430;61.646;24.704;2022-11-04T09:01:21;6.20;99.90
45715;DHT22;31430;61.646;24.704;2022-11-04T09:03:47;6.20;99.90
45715;DHT22;31430;61.646;24.704;2022-11-04T09:06:20;6.20;99.90
45715;DHT22;31430;61.646;24.704;2022-11-04T09:08:47;6.30;99.90
45715;DHT22;31430;61.646;24.704;2022-11-04T09:11:13;6.30;99.90
45715;DHT22;31430;61.646;24.704;2022-11-04T09:13:39;6.30;99.90
45715;DHT22;31430;61.646;24.704;2022-11-04T09:16:06;6.30;99.90
45715;DHT22;31430;61.646;24.704;2022-11-04T09:18:32;6.20;99.90
45715;DHT22;31430;61.646;24.704;2022-11-04T09:21:02;6.20;99.90
45715;DHT22;31430;61.646;24.704;2022-11-04T09:23:29;6.20;99.90
45715;DHT22;31430;61.646;24.704;2022-11-04T09:25:55;6.30;99.90
45715;DHT22;31430;61.646;24.704;2022-11-04T09:28:23;6.40;99.90
45715;DHT22;31430;61.646;24.704;2022-11-04T09:30:49;6.30;99.90
45715;DHT22;31430;61.646;24.704;2022-11-04T09:33:15;6.30;99.90
45715;DHT22;31430;61.646;24.704;2022-11-04T09:35:41;6.20;99.90
45715;DHT22;31430;61.646;24.704;2022-11-04T09:38:06;6.20;99.90
45715;DHT22;31430;61.646;24.704;2022-11-04T09:40:34;6.30;99.90
45715;DHT22;31430;61.646;24.704;2022-11-04T09:45:44;6.30;99.90
45715;DHT22;31430;61.646;24.704;2022-11-04T09:48:33;6.40;99.90
45715;DHT22;31430;61.646;24.704;2022-11-04T09:51:04;6.30;99.90
45715;DHT22;31430;61.646;24.704;2022-11-04T09:53:51;6.20;99.90
45715;DHT22;31430;61.646;24.704;2022-11-04T09:56:27;6.10;99.90
45715;DHT22;31430;61.646;24.704;2022-11-04T09:58:53;6.00;99.90
45715;DHT22;31430;61.646;24.704;2022-11-04T10:13:10;5.80;99.90
45715;DHT22;31430;61.646;24.704;2022-11-04T10:16:00;5.80;99.90
45715;DHT22;31430;61.646;24.704;2022-11-04T10:24:30;5.70;99.90
45715;DHT22;31430;61.646;24.704;2022-11-04T10:27:03;5.80;99.90
45715;DHT22;31430;61.646;24.704;2022-11-04T10:29:35;5.90;99.90
45715;DHT22;31430;61.646;24.704;2022-11-04T10:32:06;5.90;99.90
45715;DHT22;31430;61.646;24.704;2022-11-04T10:34:40;5.80;99.90
45715;DHT22;31430;61.646;24.704;2022-11-04T10:37:10;5.70;99.90
45715;DHT22;31430;61.646;24.704;2022-11-04T10:39:41;5.80;99.90
45715;DHT22;31430;61.646;24.704;2022-11-04T10:42:10;5.90;99.90
45715;DHT22;31430;61.646;24.704;2022-11-04T10:44:37;5.90;99.90
45715;DHT22;31430;61.646;24.704;2022-11-04T10:52:26;5.80;99.90
45715;DHT22;31430;61.646;24.704;2022-11-04T10:54:52;5.70;99.90
45715;DHT22;31430;61.646;24.704;2022-11-04T10:57:24;5.80;99.90
45715;DHT22;31430;61.646;24.704;2022-11-04T10:59:51;5.70;99.90
45715;DHT22;31430;61.646;24.704;2022-11-04T11:02:18;5.70;99.90
45715;DHT22;31430;61.646;24.704;2022-11-04T11:07:46;5.70;99.90
45715;DHT22;31430;61.646;24.704;2022-11-04T11:10:32;5.80;99.90
45715;DHT22;31430;61.646;24.704;2022-11-04T11:13:00;5.70;99.90
45715;DHT22;31430;61.646;24.704;2022-11-04T11:15:31;5.70;99.90
45715;DHT22;31430;61.646;24.704;2022-11-04T11:20:32;5.60;99.90
45715;DHT22;31430;61.646;24.704;2022-11-04T11:23:02;5.70;99.90
45715;DHT22;31430;61.646;24.704;2022-11-04T11:25:34;5.70;99.90
45715;DHT22;31430;61.646;24.704;2022-11-04T11:28:09;5.70;99.90
45715;DHT22;31430;61.646;24.704;2022-11-04T11:30:57;5.70;99.90
45715;DHT22;31430;61.646;24.704;2022-11-04T11:33:28;5.70;99.90
45715;DHT22;31430;61.646;24.704;2022-11-04T11:38:31;5.70;99.90
45715;DHT22;31430;61.646;24.704;2022-11-04T11:41:13;5.60;99.90
45715;DHT22;31430;61.646;24.704;2022-11-04T11:43:50;5.70;99.90
45715;DHT22;31430;61.646;24.704;2022-11-04T11:46:27;5.70;99.90
45715;DHT22;31430;61.646;24.704;2022-11-04T11:48:56;5.60;99.90
45715;DHT22;31430;61.646;24.704;2022-11-04T11:51:36;5.70;99.90
45715;DHT22;31430;61.646;24.704;2022-11-04T11:54:16;5.90;99.90
45715;DHT22;31430;61.646;24.704;2022-11-04T11:56:47;5.80;99.90
45715;DHT22;31430;61.646;24.704;2022-11-04T11:59:22;5.60;99.90
45715;DHT22;31430;61.646;24.704;2022-11-04T12:04:24;5.60;99.90
45715;DHT22;31430;61.646;24.704;2022-11-04T12:09:52;5.60;99.90
45715;DHT22;31430;61.646;24.704;2022-11-04T12:22:50;5.50;99.90
45715;DHT22;31430;61.646;24.704;2022-11-04T12:25:42;5.40;99.90
45715;DHT22;31430;61.646;24.704;2022-11-04T12:38:58;5.30;99.90
45715;DHT22;31430;61.646;24.704;2022-11-04T12:47:34;5.40;99.90
45715;DHT22;31430;61.646;24.704;2022-11-04T13:01:32;5.30;99.90
45715;DHT22;31430;61.646;24.704;2022-11-04T13:12:20;5.30;99.90
45715;DHT22;31430;61.646;24.704;2022-11-04T13:17:26;5.40;99.90
45715;DHT22;31430;61.646;24.704;2022-11-04T13:19:57;5.40;99.90
45715;DHT22;31430;61.646;24.704;2022-11-04T13:22:32;5.30;99.90
45715;DHT22;31430;61.646;24.704;2022-11-04T13:24:59;5.30;99.90
45715;DHT22;31430;61.646;24.704;2022-11-04T13:27:35;5.30;99.90
45715;DHT22;31430;61.646;24.704;2022-11-04T13:30:20;5.30;99.90
45715;DHT22;31430;61.646;24.704;2022-11-04T13:33:20;5.30;99.90
45715;DHT22;31430;61.646;24.704;2022-11-04T13:36:11;5.30;99.90
45715;DHT22;31430;61.646;24.704;2022-11-04T13:38:41;5.30;99.90
45715;DHT22;31430;61.646;24.704;2022-11-04T13:43:56;5.20;99.90
45715;DHT22;31430;61.646;24.704;2022-11-04T13:46:29;5.30;99.90
45715;DHT22;31430;61.646;24.704;2022-11-04T13:51:41;5.30;99.90
45715;DHT22;31430;61.646;24.704;2022-11-04T13:54:27;5.20;99.90
45715;DHT22;31430;61.646;24.704;2022-11-04T13:57:08;5.20;99.90
45715;DHT22;31430;61.646;24.704;2022-11-04T13:59:35;5.30;99.90
45715;DHT22;31430;61.646;24.704;2022-11-04T14:07:06;5.30;99.90
45715;DHT22;31430;61.646;24.704;2022-11-04T14:09:55;5.30;99.90
45715;DHT22;31430;61.646;24.704;2022-11-04T14:12:26;5.30;99.90
45715;DHT22;31430;61.646;24.704;2022-11-04T14:15:00;5.30;99.90
45715;DHT22;31430;61.646;24.704;2022-11-04T14:27:43;5.00;99.90
45715;DHT22;31430;61.646;24.704;2022-11-04T14:30:49;5.00;99.90
45715;DHT22;31430;61.646;24.704;2022-11-04T14:35:53;5.00;99.90
45715;DHT22;31430;61.646;24.704;2022-11-04T14:38:26;5.10;99.90
45715;DHT22;31430;61.646;24.704;2022-11-04T14:43:40;5.10;99.90
45715;DHT22;31430;61.646;24.704;2022-11-04T14:46:07;5.10;99.90
45715;DHT22;31430;61.646;24.704;2022-11-04T14:48:33;5.10;99.90
45715;DHT22;31430;61.646;24.704;2022-11-04T14:51:00;5.10;99.90
45715;DHT22;31430;61.646;24.704;2022-11-04T14:53:31;5.10;99.90
45715;DHT22;31430;61.646;24.704;2022-11-04T14:58:58;5.20;99.90
45715;DHT22;31430;61.646;24.704;2022-11-04T15:01:26;5.20;99.90
45715;DHT22;31430;61.646;24.704;2022-11-04T15:03:55;5.10;99.90
45715;DHT22;31430;61.646;24.704;2022-11-04T15:06:28;5.10;99.90
45715;DHT22;31430;61.646;24.704;2022-11-04T15:08:55;5.10;99.90
45715;DHT22;31430;61.646;24.704;2022-11-04T15:11:23;5.00;99.90
45715;DHT22;31430;61.646;24.704;2022-11-04T15:14:23;4.90;99.90
45715;DHT22;31430;61.646;24.704;2022-11-04T15:16:57;5.00;99.90
45715;DHT22;31430;61.646;24.704;2022-11-04T15:19:31;5.10;99.90
45715;DHT22;31430;61.646;24.704;2022-11-04T15:21:59;4.90;99.90
45715;DHT22;31430;61.646;24.704;2022-11-04T15:24:26;5.00;99.90
45715;DHT22;31430;61.646;24.704;2022-11-04T15:26:53;5.00;99.90
45715;DHT22;31430;61.646;24.704;2022-11-04T15:29:23;5.00;99.90
45715;DHT22;31430;61.646;24.704;2022-11-04T15:31:59;5.10;99.90
45715;DHT22;31430;61.646;24.704;2022-11-04T15:34:27;4.90;99.90
45715;DHT22;31430;61.646;24.704;2022-11-04T15:36:56;4.90;99.90
45715;DHT22;31430;61.646;24.704;2022-11-04T15:39:50;4.90;99.90
45715;DHT22;31430;61.646;24.704;2022-11-04T15:42:19;5.00;99.90
45715;DHT22;31430;61.646;24.704;2022-11-04T15:45:38;5.00;99.90
45715;DHT22;31430;61.646;24.704;2022-11-04T15:54:01;4.90;99.90
45715;DHT22;31430;61.646;24.704;2022-11-04T15:56:32;5.00;99.90
45715;DHT22;31430;61.646;24.704;2022-11-04T15:58:59;5.00;99.90
45715;DHT22;31430;61.646;24.704;2022-11-04T16:01:26;5.00;99.90
45715;DHT22;31430;61.646;24.704;2022-11-04T16:03:58;4.90;99.90
45715;DHT22;31430;61.646;24.704;2022-11-04T16:06:32;4.90;99.90
45715;DHT22;31430;61.646;24.704;2022-11-04T16:09:18;5.00;99.90
45715;DHT22;31430;61.646;24.704;2022-11-04T16:14:52;5.00;99.90
45715;DHT22;31430;61.646;24.704;2022-11-04T16:17:19;5.00;99.90
45715;DHT22;31430;61.646;24.704;2022-11-04T16:19:47;5.00;99.90
45715;DHT22;31430;61.646;24.704;2022-11-04T16:22:23;5.00;99.90
45715;DHT22;31430;61.646;24.704;2022-11-04T16:24:50;5.00;99.90
45715;DHT22;31430;61.646;24.704;2022-11-04T16:27:20;5.00;99.90
45715;DHT22;31430;61.646;24.704;2022-11-04T16:30:39;4.90;99.90
45715;DHT22;31430;61.646;24.704;2022-11-04T16:32:44;4.90;99.90
45715;DHT22;31430;61.646;24.704;2022-11-04T16:35:26;4.90;99.90
45715;DHT22;31430;61.646;24.704;2022-11-04T16:37:54;4.80;99.90
45715;DHT22;31430;61.646;24.704;2022-11-04T16:40:21;4.90;99.90
45715;DHT22;31430;61.646;24.704;2022-11-04T16:42:49;4.90;99.90
45715;DHT22;31430;61.646;24.704;2022-11-04T16:45:32;5.00;99.90
45715;DHT22;31430;61.646;24.704;2022-11-04T16:47:58;5.00;99.90
45715;DHT22;31430;61.646;24.704;2022-11-04T16:50:25;5.00;99.90
45715;DHT22;31430;61.646;24.704;2022-11-04T16:52:52;4.90;99.90
45715;DHT22;31430;61.646;24.704;2022-11-04T16:55:18;4.90;99.90
45715;DHT22;31430;61.646;24.704;2022-11-04T16:57:56;4.90;99.90
45715;DHT22;31430;61.646;24.704;2022-11-04T17:00:25;4.90;99.90
45715;DHT22;31430;61.646;24.704;2022-11-04T17:02:51;4.90;99.90
45715;DHT22;31430;61.646;24.704;2022-11-04T17:05:17;4.90;99.90
45715;DHT22;31430;61.646;24.704;2022-11-04T17:07:43;4.80;99.90
45715;DHT22;31430;61.646;24.704;2022-11-04T17:10:24;4.90;99.90
45715;DHT22;31430;61.646;24.704;2022-11-04T17:12:49;4.90;99.90
45715;DHT22;31430;61.646;24.704;2022-11-04T17:15:15;4.90;99.90
45715;DHT22;31430;61.646;24.704;2022-11-04T17:17:42;4.90;99.90
45715;DHT22;31430;61.646;24.704;2022-11-04T17:20:11;4.90;99.90
45715;DHT22;31430;61.646;24.704;2022-11-04T17:22:37;4.90;99.90
45715;DHT22;31430;61.646;24.704;2022-11-04T17:25:03;4.90;99.90
45715;DHT22;31430;61.646;24.704;2022-11-04T17:27:37;4.90;99.90
45715;DHT22;31430;61.646;24.704;2022-11-04T17:30:06;4.90;99.90
45715;DHT22;31430;61.646;24.704;2022-11-04T17:32:34;4.90;99.90
45715;DHT22;31430;61.646;24.704;2022-11-04T17:35:00;4.80;99.90
45715;DHT22;31430;61.646;24.704;2022-11-04T17:37:25;4.80;99.90
45715;DHT22;31430;61.646;24.704;2022-11-04T17:39:51;4.90;99.90
45715;DHT22;31430;61.646;24.704;2022-11-04T17:42:18;4.80;99.90
45715;DHT22;31430;61.646;24.704;2022-11-04T17:45:03;4.90;99.90
45715;DHT22;31430;61.646;24.704;2022-11-04T17:47:28;4.90;99.90
45715;DHT22;31430;61.646;24.704;2022-11-04T17:49:54;4.80;99.90
45715;DHT22;31430;61.646;24.704;2022-11-04T17:52:20;4.90;99.90
45715;DHT22;31430;61.646;24.704;2022-11-04T17:54:47;4.90;99.90
45715;DHT22;31430;61.646;24.704;2022-11-04T17:57:12;5.00;99.90
45715;DHT22;31430;61.646;24.704;2022-11-04T17:59:39;4.90;99.90
45715;DHT22;31430;61.646;24.704;2022-11-04T18:02:04;5.00;99.90
45715;DHT22;31430;61.646;24.704;2022-11-04T18:04:30;5.00;99.90
45715;DHT22;31430;61.646;24.704;2022-11-04T18:06:56;4.90;99.90
45715;DHT22;31430;61.646;24.704;2022-11-04T18:09:21;5.00;99.90
45715;DHT22;31430;61.646;24.704;2022-11-04T18:11:47;5.00;99.90
45715;DHT22;31430;61.646;24.704;2022-11-04T18:14:31;4.90;99.90
45715;DHT22;31430;61.646;24.704;2022-11-04T18:16:57;4.90;99.90
45715;DHT22;31430;61.646;24.704;2022-11-04T18:19:24;4.90;99.90
45715;DHT22;31430;61.646;24.704;2022-11-04T18:21:50;5.00;99.90
45715;DHT22;31430;61.646;24.704;2022-11-04T18:24:16;4.90;99.90
45715;DHT22;31430;61.646;24.704;2022-11-04T18:26:42;5.00;99.90
45715;DHT22;31430;61.646;24.704;2022-11-04T18:29:08;5.00;99.90
45715;DHT22;31430;61.646;24.704;2022-11-04T18:31:36;4.90;99.90